sensor_id;sensor_type;location;lat;lon;timestamp;P1;durP1;ratioP1;P2;durP2;ratioP2
22634;SDS011;11484;50.858;4.384;2023-04-15T00:00:37;5.47;;;2.88;;
22634;SDS011;11484;50.858;4.384;2023-04-15T00:03:03;7.57;;;3.47;;
22634;SDS011;11484;50.858;4.384;2023-04-15T00:05:33;5.88;;;2.90;;
22634;SDS011;11484;50.858;4.384;2023-04-15T00:07:59;5.20;;;2.88;;
22634;SDS011;11484;50.858;4.384;2023-04-15T00:10:25;3.35;;;2.75;;
22634;SDS011;11484;50.858;4.384;2023-04-15T00:12:51;5.47;;;2.90;;
22634;SDS011;11484;50.858;4.384;2023-04-15T00:15:17;4.18;;;3.03;;
22634;SDS011;11484;50.858;4.384;2023-04-15T00:17:43;6.53;;;3.10;;
22634;SDS011;11484;50.858;4.384;2023-04-15T00:20:09;4.90;;;3.03;;
22634;SDS011;11484;50.858;4.384;2023-04-15T00:22:35;4.85;;;2.90;;
22634;SDS011;11484;50.858;4.384;2023-04-15T00:25:01;4.88;;;3.45;;
22634;SDS011;11484;50.858;4.384;2023-04-15T00:27:27;5.80;;;3.30;;
22634;SDS011;11484;50.858;4.384;2023-04-15T00:29:53;5.32;;;3.38;;
22634;SDS011;11484;50.858;4.384;2023-04-15T00:32:20;6.22;;;3.20;;
22634;SDS011;11484;50.858;4.384;2023-04-15T00:34:45;4.13;;;2.97;;
22634;SDS011;11484;50.858;4.384;2023-04-15T00:37:11;4.65;;;2.90;;
22634;SDS011;11484;50.858;4.384;2023-04-15T00:39:37;4.75;;;2.83;;
22634;SDS011;11484;50.858;4.384;2023-04-15T00:42:03;4.88;;;2.83;;
22634;SDS011;11484;50.858;4.384;2023-04-15T00:44:29;5.10;;;3.00;;
22634;SDS011;11484;50.858;4.384;2023-04-15T00:46:56;4.32;;;2.65;;
22634;SDS011;11484;50.858;4.384;2023-04-15T00:49:22;5.25;;;2.72;;
22634;SDS011;11484;50.858;4.384;2023-04-15T00:51:48;4.50;;;2.75;;
22634;SDS011;11484;50.858;4.384;2023-04-15T00:54:15;5.28;;;2.97;;
22634;SDS011;11484;50.858;4.384;2023-04-15T00:56:41;5.20;;;3.08;;
22634;SDS011;11484;50.858;4.384;2023-04-15T00:59:06;4.45;;;2.80;;
22634;SDS011;11484;50.858;4.384;2023-04-15T01:01:34;4.90;;;2.75;;
22634;SDS011;11484;50.858;4.384;2023-04-15T01:04:00;4.15;;;2.65;;
22634;SDS011;11484;50.858;4.384;2023-04-15T01:06:27;5.18;;;2.83;;
22634;SDS011;11484;50.858;4.384;2023-04-15T01:08:53;3.80;;;2.50;;
22634;SDS011;11484;50.858;4.384;2023-04-15T01:11:20;2.85;;;1.98;;
22634;SDS011;11484;50.858;4.384;2023-04-15T01:13:48;4.00;;;2.53;;
22634;SDS011;11484;50.858;4.384;2023-04-15T01:16:15;3.90;;;2.60;;
22634;SDS011;11484;50.858;4.384;2023-04-15T01:18:41;4.53;;;2.38;;
22634;SDS011;11484;50.858;4.384;2023-04-15T01:21:07;3.95;;;2.20;;
22634;SDS011;11484;50.858;4.384;2023-04-15T01:23:34;3.28;;;2.25;;
22634;SDS011;11484;50.858;4.384;2023-04-15T01:26:02;3.72;;;2.38;;
22634;SDS011;11484;50.858;4.384;2023-04-15T01:28:29;4.32;;;2.30;;
22634;SDS011;11484;50.858;4.384;2023-04-15T01:31:05;3.58;;;2.47;;
22634;SDS011;11484;50.858;4.384;2023-04-15T01:33:32;4.40;;;2.25;;
22634;SDS011;11484;50.858;4.384;2023-04-15T01:35:57;3.53;;;2.13;;
22634;SDS011;11484;50.858;4.384;2023-04-15T01:38:24;3.70;;;2.47;;
22634;SDS011;11484;50.858;4.384;2023-04-15T01:40:51;3.45;;;1.92;;
22634;SDS011;11484;50.858;4.384;2023-04-15T01:43:17;3.92;;;1.80;;
22634;SDS011;11484;50.858;4.384;2023-04-15T01:45:43;5.05;;;2.45;;
22634;SDS011;11484;50.858;4.384;2023-04-15T01:48:08;3.75;;;1.95;;
22634;SDS011;11484;50.858;4.384;2023-04-15T01:50:34;3.55;;;2.33;;
22634;SDS011;11484;50.858;4.384;2023-04-15T01:53:02;3.95;;;2.22;;
22634;SDS011;11484;50.858;4.384;2023-04-15T01:55:28;3.60;;;2.03;;
22634;SDS011;11484;50.858;4.384;2023-04-15T01:57:54;4.97;;;2.65;;
22634;SDS011;11484;50.858;4.384;2023-04-15T02:00:20;5.75;;;2.75;;
22634;SDS011;11484;50.858;4.384;2023-04-15T02:02:47;5.68;;;2.75;;
22634;SDS011;11484;50.858;4.384;2023-04-15T02:05:13;5.03;;;2.45;;
22634;SDS011;11484;50.858;4.384;2023-04-15T02:07:41;6.40;;;2.80;;
22634;SDS011;11484;50.858;4.384;2023-04-15T02:10:07;3.55;;;2.33;;
22634;SDS011;11484;50.858;4.384;2023-04-15T02:12:34;5.32;;;2.60;;
22634;SDS011;11484;50.858;4.384;2023-04-15T02:15:00;4.93;;;2.92;;
22634;SDS011;11484;50.858;4.384;2023-04-15T02:17:26;4.82;;;3.92;;
22634;SDS011;11484;50.858;4.384;2023-04-15T02:19:51;4.43;;;2.80;;
22634;SDS011;11484;50.858;4.384;2023-04-15T02:22:17;5.68;;;2.88;;
22634;SDS011;11484;50.858;4.384;2023-04-15T02:24:43;7.60;;;3.30;;
22634;SDS011;11484;50.858;4.384;2023-04-15T02:27:10;8.50;;;3.10;;
22634;SDS011;11484;50.858;4.384;2023-04-15T02:29:39;9.30;;;4.70;;
22634;SDS011;11484;50.858;4.384;2023-04-15T02:32:05;8.35;;;4.70;;
22634;SDS011;11484;50.858;4.384;2023-04-15T02:34:31;10.27;;;4.57;;
22634;SDS011;11484;50.858;4.384;2023-04-15T02:36:57;11.15;;;5.80;;
22634;SDS011;11484;50.858;4.384;2023-04-15T02:39:23;13.18;;;5.53;;
22634;SDS011;11484;50.858;4.384;2023-04-15T02:41:49;15.65;;;5.53;;
22634;SDS011;11484;50.858;4.384;2023-04-15T02:44:17;13.90;;;6.05;;
22634;SDS011;11484;50.858;4.384;2023-04-15T02:46:47;14.55;;;6.38;;
22634;SDS011;11484;50.858;4.384;2023-04-15T02:49:16;14.73;;;5.80;;
22634;SDS011;11484;50.858;4.384;2023-04-15T02:51:42;18.00;;;6.32;;
22634;SDS011;11484;50.858;4.384;2023-04-15T02:54:13;15.93;;;5.70;;
22634;SDS011;11484;50.858;4.384;2023-04-15T02:56:42;18.63;;;7.32;;
22634;SDS011;11484;50.858;4.384;2023-04-15T02:59:07;19.65;;;7.30;;
22634;SDS011;11484;50.858;4.384;2023-04-15T03:01:33;15.82;;;7.10;;
22634;SDS011;11484;50.858;4.384;2023-04-15T03:03:59;17.98;;;7.10;;
22634;SDS011;11484;50.858;4.384;2023-04-15T03:06:25;17.15;;;7.47;;
22634;SDS011;11484;50.858;4.384;2023-04-15T03:08:51;16.60;;;7.38;;
22634;SDS011;11484;50.858;4.384;2023-04-15T03:11:16;17.50;;;7.70;;
22634;SDS011;11484;50.858;4.384;2023-04-15T03:13:43;19.65;;;7.72;;
22634;SDS011;11484;50.858;4.384;2023-04-15T03:16:09;17.08;;;7.10;;
22634;SDS011;11484;50.858;4.384;2023-04-15T03:18:35;17.85;;;8.02;;
22634;SDS011;11484;50.858;4.384;2023-04-15T03:21:00;16.92;;;7.97;;
22634;SDS011;11484;50.858;4.384;2023-04-15T03:23:27;20.27;;;8.43;;
22634;SDS011;11484;50.858;4.384;2023-04-15T03:25:52;19.92;;;7.93;;
22634;SDS011;11484;50.858;4.384;2023-04-15T03:28:21;18.10;;;7.80;;
22634;SDS011;11484;50.858;4.384;2023-04-15T03:30:46;19.95;;;7.88;;
22634;SDS011;11484;50.858;4.384;2023-04-15T03:33:12;15.68;;;7.20;;
22634;SDS011;11484;50.858;4.384;2023-04-15T03:35:38;13.63;;;7.55;;
22634;SDS011;11484;50.858;4.384;2023-04-15T03:38:03;19.83;;;8.32;;
22634;SDS011;11484;50.858;4.384;2023-04-15T03:40:29;18.48;;;7.45;;
22634;SDS011;11484;50.858;4.384;2023-04-15T03:42:55;16.05;;;6.90;;
22634;SDS011;11484;50.858;4.384;2023-04-15T03:45:20;12.63;;;6.35;;
22634;SDS011;11484;50.858;4.384;2023-04-15T03:47:46;10.27;;;6.25;;
22634;SDS011;11484;50.858;4.384;2023-04-15T03:50:12;10.98;;;6.55;;
22634;SDS011;11484;50.858;4.384;2023-04-15T03:52:37;12.27;;;6.45;;
22634;SDS011;11484;50.858;4.384;2023-04-15T03:55:03;9.73;;;6.45;;
22634;SDS011;11484;50.858;4.384;2023-04-15T03:57:29;9.38;;;6.07;;
22634;SDS011;11484;50.858;4.384;2023-04-15T03:59:55;11.07;;;6.30;;
22634;SDS011;11484;50.858;4.384;2023-04-15T04:02:20;9.48;;;5.85;;
22634;SDS011;11484;50.858;4.384;2023-04-15T04:04:47;10.15;;;5.90;;
22634;SDS011;11484;50.858;4.384;2023-04-15T04:07:16;10.10;;;6.30;;
22634;SDS011;11484;50.858;4.384;2023-04-15T04:09:42;10.82;;;6.05;;
22634;SDS011;11484;50.858;4.384;2023-04-15T04:12:07;9.30;;;6.10;;
22634;SDS011;11484;50.858;4.384;2023-04-15T04:14:33;11.20;;;6.13;;
22634;SDS011;11484;50.858;4.384;2023-04-15T04:16:59;9.10;;;6.22;;
22634;SDS011;11484;50.858;4.384;2023-04-15T04:19:25;9.43;;;5.82;;
22634;SDS011;11484;50.858;4.384;2023-04-15T04:21:50;11.98;;;8.65;;
22634;SDS011;11484;50.858;4.384;2023-04-15T04:24:16;8.88;;;6.00;;
22634;SDS011;11484;50.858;4.384;2023-04-15T04:26:42;10.68;;;6.15;;
22634;SDS011;11484;50.858;4.384;2023-04-15T04:29:07;11.02;;;5.65;;
22634;SDS011;11484;50.858;4.384;2023-04-15T04:31:33;10.02;;;5.50;;
22634;SDS011;11484;50.858;4.384;2023-04-15T04:33:59;8.75;;;5.25;;
22634;SDS011;11484;50.858;4.384;2023-04-15T04:36:25;9.48;;;5.60;;
22634;SDS011;11484;50.858;4.384;2023-04-15T04:38:50;12.40;;;5.97;;
22634;SDS011;11484;50.858;4.384;2023-04-15T04:41:16;8.88;;;6.15;;
22634;SDS011;11484;50.858;4.384;2023-04-15T04:43:42;9.63;;;6.07;;
22634;SDS011;11484;50.858;4.384;2023-04-15T04:46:08;9.55;;;5.38;;
22634;SDS011;11484;50.858;4.384;2023-04-15T04:48:34;11.38;;;6.32;;
22634;SDS011;11484;50.858;4.384;2023-04-15T04:51:00;10.45;;;5.78;;
22634;SDS011;11484;50.858;4.384;2023-04-15T04:53:26;10.07;;;6.03;;
22634;SDS011;11484;50.858;4.384;2023-04-15T04:55:52;12.40;;;6.38;;
22634;SDS011;11484;50.858;4.384;2023-04-15T04:58:17;10.20;;;5.82;;
22634;SDS011;11484;50.858;4.384;2023-04-15T05:00:43;9.05;;;5.97;;
22634;SDS011;11484;50.858;4.384;2023-04-15T05:03:09;11.02;;;6.75;;
22634;SDS011;11484;50.858;4.384;2023-04-15T05:05:34;10.32;;;5.65;;
22634;SDS011;11484;50.858;4.384;2023-04-15T05:08:03;11.00;;;6.07;;
22634;SDS011;11484;50.858;4.384;2023-04-15T05:10:29;10.52;;;6.43;;
22634;SDS011;11484;50.858;4.384;2023-04-15T05:12:55;9.55;;;6.40;;
22634;SDS011;11484;50.858;4.384;2023-04-15T05:15:21;10.07;;;6.10;;
22634;SDS011;11484;50.858;4.384;2023-04-15T05:17:47;12.40;;;6.85;;
22634;SDS011;11484;50.858;4.384;2023-04-15T05:20:13;8.32;;;5.70;;
22634;SDS011;11484;50.858;4.384;2023-04-15T05:22:38;9.35;;;5.35;;
22634;SDS011;11484;50.858;4.384;2023-04-15T05:25:04;8.45;;;5.22;;
22634;SDS011;11484;50.858;4.384;2023-04-15T05:27:30;9.98;;;5.78;;
22634;SDS011;11484;50.858;4.384;2023-04-15T05:29:56;7.55;;;5.40;;
22634;SDS011;11484;50.858;4.384;2023-04-15T05:32:21;10.32;;;5.80;;
22634;SDS011;11484;50.858;4.384;2023-04-15T05:34:47;8.52;;;5.03;;
22634;SDS011;11484;50.858;4.384;2023-04-15T05:37:12;10.32;;;5.65;;
22634;SDS011;11484;50.858;4.384;2023-04-15T05:39:38;10.10;;;5.57;;
22634;SDS011;11484;50.858;4.384;2023-04-15T05:42:04;7.05;;;4.72;;
22634;SDS011;11484;50.858;4.384;2023-04-15T05:44:30;9.57;;;5.35;;
22634;SDS011;11484;50.858;4.384;2023-04-15T05:46:56;9.32;;;4.97;;
22634;SDS011;11484;50.858;4.384;2023-04-15T05:49:22;9.10;;;5.45;;
22634;SDS011;11484;50.858;4.384;2023-04-15T05:51:48;6.50;;;4.97;;
22634;SDS011;11484;50.858;4.384;2023-04-15T05:54:13;6.88;;;5.10;;
22634;SDS011;11484;50.858;4.384;2023-04-15T05:56:40;11.80;;;5.75;;
22634;SDS011;11484;50.858;4.384;2023-04-15T05:59:05;8.10;;;4.70;;
22634;SDS011;11484;50.858;4.384;2023-04-15T06:01:32;9.60;;;5.47;;
22634;SDS011;11484;50.858;4.384;2023-04-15T06:04:00;8.80;;;5.25;;
22634;SDS011;11484;50.858;4.384;2023-04-15T06:06:26;8.88;;;5.93;;
22634;SDS011;11484;50.858;4.384;2023-04-15T06:08:52;9.77;;;5.50;;
22634;SDS011;11484;50.858;4.384;2023-04-15T06:11:19;14.40;;;6.18;;
22634;SDS011;11484;50.858;4.384;2023-04-15T06:13:46;10.07;;;6.07;;
22634;SDS011;11484;50.858;4.384;2023-04-15T06:16:11;8.88;;;5.50;;
22634;SDS011;11484;50.858;4.384;2023-04-15T06:18:37;10.32;;;5.78;;
22634;SDS011;11484;50.858;4.384;2023-04-15T06:21:03;7.50;;;5.13;;
22634;SDS011;11484;50.858;4.384;2023-04-15T06:23:29;11.02;;;6.72;;
22634;SDS011;11484;50.858;4.384;2023-04-15T06:25:54;10.35;;;6.60;;
22634;SDS011;11484;50.858;4.384;2023-04-15T06:28:20;12.45;;;6.03;;
22634;SDS011;11484;50.858;4.384;2023-04-15T06:30:46;9.10;;;5.45;;
22634;SDS011;11484;50.858;4.384;2023-04-15T06:33:11;7.47;;;4.80;;
22634;SDS011;11484;50.858;4.384;2023-04-15T06:35:37;9.93;;;5.25;;
22634;SDS011;11484;50.858;4.384;2023-04-15T06:38:03;6.95;;;5.15;;
22634;SDS011;11484;50.858;4.384;2023-04-15T06:40:29;9.82;;;5.40;;
22634;SDS011;11484;50.858;4.384;2023-04-15T06:42:55;12.73;;;5.65;;
22634;SDS011;11484;50.858;4.384;2023-04-15T06:45:21;11.00;;;4.82;;
22634;SDS011;11484;50.858;4.384;2023-04-15T06:47:46;7.30;;;4.65;;
22634;SDS011;11484;50.858;4.384;2023-04-15T06:50:12;7.50;;;4.40;;
22634;SDS011;11484;50.858;4.384;2023-04-15T06:52:39;7.15;;;4.45;;
22634;SDS011;11484;50.858;4.384;2023-04-15T06:55:05;7.20;;;4.75;;
22634;SDS011;11484;50.858;4.384;2023-04-15T06:57:31;8.23;;;4.30;;
22634;SDS011;11484;50.858;4.384;2023-04-15T06:59:57;6.47;;;4.63;;
22634;SDS011;11484;50.858;4.384;2023-04-15T07:02:23;9.90;;;5.15;;
22634;SDS011;11484;50.858;4.384;2023-04-15T07:04:49;8.82;;;4.57;;
22634;SDS011;11484;50.858;4.384;2023-04-15T07:07:15;6.78;;;4.75;;
22634;SDS011;11484;50.858;4.384;2023-04-15T07:09:41;8.35;;;4.30;;
22634;SDS011;11484;50.858;4.384;2023-04-15T07:12:07;8.50;;;4.95;;
22634;SDS011;11484;50.858;4.384;2023-04-15T07:14:33;8.18;;;4.80;;
22634;SDS011;11484;50.858;4.384;2023-04-15T07:16:58;8.57;;;5.15;;
22634;SDS011;11484;50.858;4.384;2023-04-15T07:19:24;9.13;;;5.03;;
22634;SDS011;11484;50.858;4.384;2023-04-15T07:21:50;8.90;;;4.95;;
22634;SDS011;11484;50.858;4.384;2023-04-15T07:24:16;8.93;;;4.70;;
22634;SDS011;11484;50.858;4.384;2023-04-15T07:26:43;8.43;;;4.60;;
22634;SDS011;11484;50.858;4.384;2023-04-15T07:29:09;9.98;;;4.65;;
22634;SDS011;11484;50.858;4.384;2023-04-15T07:31:35;7.82;;;4.90;;
22634;SDS011;11484;50.858;4.384;2023-04-15T07:34:01;11.40;;;5.30;;
22634;SDS011;11484;50.858;4.384;2023-04-15T07:36:27;8.45;;;5.35;;
22634;SDS011;11484;50.858;4.384;2023-04-15T07:38:53;10.23;;;5.70;;
22634;SDS011;11484;50.858;4.384;2023-04-15T07:41:19;9.60;;;5.05;;
22634;SDS011;11484;50.858;4.384;2023-04-15T07:43:45;8.65;;;5.13;;
22634;SDS011;11484;50.858;4.384;2023-04-15T07:46:12;11.70;;;4.78;;
22634;SDS011;11484;50.858;4.384;2023-04-15T07:48:38;7.95;;;4.72;;
22634;SDS011;11484;50.858;4.384;2023-04-15T07:51:04;8.40;;;4.90;;
22634;SDS011;11484;50.858;4.384;2023-04-15T07:53:30;9.32;;;5.40;;
22634;SDS011;11484;50.858;4.384;2023-04-15T07:55:57;7.30;;;5.43;;
22634;SDS011;11484;50.858;4.384;2023-04-15T07:58:23;8.15;;;5.63;;
22634;SDS011;11484;50.858;4.384;2023-04-15T08:00:49;10.82;;;5.55;;
22634;SDS011;11484;50.858;4.384;2023-04-15T08:03:15;9.57;;;6.20;;
22634;SDS011;11484;50.858;4.384;2023-04-15T08:05:41;8.93;;;6.13;;
22634;SDS011;11484;50.858;4.384;2023-04-15T08:08:07;8.30;;;6.22;;
22634;SDS011;11484;50.858;4.384;2023-04-15T08:10:32;10.40;;;6.53;;
22634;SDS011;11484;50.858;4.384;2023-04-15T08:12:58;9.88;;;6.63;;
22634;SDS011;11484;50.858;4.384;2023-04-15T08:15:25;25.10;;;8.45;;
22634;SDS011;11484;50.858;4.384;2023-04-15T08:17:52;10.90;;;7.60;;
22634;SDS011;11484;50.858;4.384;2023-04-15T08:20:18;12.90;;;6.63;;
22634;SDS011;11484;50.858;4.384;2023-04-15T08:22:44;8.45;;;6.57;;
22634;SDS011;11484;50.858;4.384;2023-04-15T08:25:11;9.93;;;6.53;;
22634;SDS011;11484;50.858;4.384;2023-04-15T08:27:37;10.10;;;6.90;;
22634;SDS011;11484;50.858;4.384;2023-04-15T08:30:03;8.18;;;5.97;;
22634;SDS011;11484;50.858;4.384;2023-04-15T08:32:30;10.05;;;6.93;;
22634;SDS011;11484;50.858;4.384;2023-04-15T08:34:55;10.52;;;7.03;;
22634;SDS011;11484;50.858;4.384;2023-04-15T08:37:21;11.27;;;7.00;;
22634;SDS011;11484;50.858;4.384;2023-04-15T08:39:47;9.85;;;6.95;;
22634;SDS011;11484;50.858;4.384;2023-04-15T08:42:16;12.27;;;6.80;;
22634;SDS011;11484;50.858;4.384;2023-04-15T08:47:11;9.27;;;6.93;;
22634;SDS011;11484;50.858;4.384;2023-04-15T08:49:39;11.45;;;7.15;;
22634;SDS011;11484;50.858;4.384;2023-04-15T08:52:06;10.00;;;6.65;;
22634;SDS011;11484;50.858;4.384;2023-04-15T08:54:33;9.73;;;6.90;;
22634;SDS011;11484;50.858;4.384;2023-04-15T08:57:00;9.80;;;6.50;;
22634;SDS011;11484;50.858;4.384;2023-04-15T08:59:29;10.55;;;7.20;;
22634;SDS011;11484;50.858;4.384;2023-04-15T09:01:56;8.85;;;6.65;;
22634;SDS011;11484;50.858;4.384;2023-04-15T09:04:22;10.93;;;6.85;;
22634;SDS011;11484;50.858;4.384;2023-04-15T09:06:48;10.32;;;7.22;;
22634;SDS011;11484;50.858;4.384;2023-04-15T09:09:14;12.02;;;7.47;;
22634;SDS011;11484;50.858;4.384;2023-04-15T09:11:40;10.73;;;6.90;;
22634;SDS011;11484;50.858;4.384;2023-04-15T09:14:06;10.40;;;6.97;;
22634;SDS011;11484;50.858;4.384;2023-04-15T09:16:54;9.85;;;6.28;;
22634;SDS011;11484;50.858;4.384;2023-04-15T09:19:24;9.63;;;6.05;;
22634;SDS011;11484;50.858;4.384;2023-04-15T09:21:55;8.95;;;6.63;;
22634;SDS011;11484;50.858;4.384;2023-04-15T09:26:47;6.60;;;3.95;;
22634;SDS011;11484;50.858;4.384;2023-04-15T09:29:17;6.68;;;3.90;;
22634;SDS011;11484;50.858;4.384;2023-04-15T09:31:43;7.90;;;3.70;;
22634;SDS011;11484;50.858;4.384;2023-04-15T09:34:08;8.32;;;4.07;;
22634;SDS011;11484;50.858;4.384;2023-04-15T09:39:13;7.40;;;4.22;;
22634;SDS011;11484;50.858;4.384;2023-04-15T09:41:38;4.78;;;3.58;;
22634;SDS011;11484;50.858;4.384;2023-04-15T09:44:05;8.95;;;4.28;;
22634;SDS011;11484;50.858;4.384;2023-04-15T09:46:41;5.35;;;4.18;;
22634;SDS011;11484;50.858;4.384;2023-04-15T09:49:07;6.55;;;4.00;;
22634;SDS011;11484;50.858;4.384;2023-04-15T09:51:34;5.15;;;4.05;;
22634;SDS011;11484;50.858;4.384;2023-04-15T09:54:00;8.05;;;4.30;;
22634;SDS011;11484;50.858;4.384;2023-04-15T09:56:31;5.07;;;3.60;;
22634;SDS011;11484;50.858;4.384;2023-04-15T09:59:02;4.72;;;3.35;;
22634;SDS011;11484;50.858;4.384;2023-04-15T10:01:30;5.95;;;3.70;;
22634;SDS011;11484;50.858;4.384;2023-04-15T10:03:56;8.27;;;4.20;;
22634;SDS011;11484;50.858;4.384;2023-04-15T10:06:25;5.38;;;3.88;;
22634;SDS011;11484;50.858;4.384;2023-04-15T10:08:51;6.70;;;3.97;;
22634;SDS011;11484;50.858;4.384;2023-04-15T10:11:19;6.15;;;3.70;;
22634;SDS011;11484;50.858;4.384;2023-04-15T10:13:48;8.85;;;4.07;;
22634;SDS011;11484;50.858;4.384;2023-04-15T10:16:15;5.50;;;3.65;;
22634;SDS011;11484;50.858;4.384;2023-04-15T10:18:44;6.68;;;3.75;;
22634;SDS011;11484;50.858;4.384;2023-04-15T10:21:11;7.25;;;4.00;;
22634;SDS011;11484;50.858;4.384;2023-04-15T10:23:42;6.22;;;3.80;;
22634;SDS011;11484;50.858;4.384;2023-04-15T10:26:11;7.13;;;4.18;;
22634;SDS011;11484;50.858;4.384;2023-04-15T10:28:47;5.63;;;3.42;;
22634;SDS011;11484;50.858;4.384;2023-04-15T10:31:14;6.78;;;3.90;;
22634;SDS011;11484;50.858;4.384;2023-04-15T10:33:41;5.95;;;3.70;;
22634;SDS011;11484;50.858;4.384;2023-04-15T10:36:08;6.82;;;3.50;;
22634;SDS011;11484;50.858;4.384;2023-04-15T10:41:11;4.32;;;3.10;;
22634;SDS011;11484;50.858;4.384;2023-04-15T10:46:37;5.32;;;2.88;;
22634;SDS011;11484;50.858;4.384;2023-04-15T10:49:23;3.22;;;2.35;;
22634;SDS011;11484;50.858;4.384;2023-04-15T10:51:50;3.65;;;2.20;;
22634;SDS011;11484;50.858;4.384;2023-04-15T10:59:27;4.47;;;2.50;;
22634;SDS011;11484;50.858;4.384;2023-04-15T11:01:55;3.92;;;2.30;;
22634;SDS011;11484;50.858;4.384;2023-04-15T11:17:55;4.25;;;3.13;;
22634;SDS011;11484;50.858;4.384;2023-04-15T11:20:33;5.35;;;2.83;;
22634;SDS011;11484;50.858;4.384;2023-04-15T11:22:59;3.78;;;2.95;;
22634;SDS011;11484;50.858;4.384;2023-04-15T11:25:26;4.07;;;2.72;;
22634;SDS011;11484;50.858;4.384;2023-04-15T11:27:53;4.60;;;2.92;;
22634;SDS011;11484;50.858;4.384;2023-04-15T11:30:24;3.60;;;2.80;;
22634;SDS011;11484;50.858;4.384;2023-04-15T11:35:17;4.82;;;2.70;;
22634;SDS011;11484;50.858;4.384;2023-04-15T11:37:43;3.50;;;2.58;;
22634;SDS011;11484;50.858;4.384;2023-04-15T11:40:10;5.18;;;2.10;;
22634;SDS011;11484;50.858;4.384;2023-04-15T11:42:36;3.63;;;2.15;;
22634;SDS011;11484;50.858;4.384;2023-04-15T11:45:08;3.90;;;2.38;;
22634;SDS011;11484;50.858;4.384;2023-04-15T11:47:39;2.97;;;1.70;;
22634;SDS011;11484;50.858;4.384;2023-04-15T11:50:15;2.90;;;1.20;;
22634;SDS011;11484;50.858;4.384;2023-04-15T11:52:55;2.13;;;1.42;;
22634;SDS011;11484;50.858;4.384;2023-04-15T11:55:25;3.60;;;1.88;;
22634;SDS011;11484;50.858;4.384;2023-04-15T12:00:39;2.92;;;2.15;;
22634;SDS011;11484;50.858;4.384;2023-04-15T12:06:01;3.28;;;2.40;;
22634;SDS011;11484;50.858;4.384;2023-04-15T12:14:26;2.47;;;1.73;;
22634;SDS011;11484;50.858;4.384;2023-04-15T12:16:56;3.70;;;1.70;;
22634;SDS011;11484;50.858;4.384;2023-04-15T12:19:28;3.80;;;1.92;;
22634;SDS011;11484;50.858;4.384;2023-04-15T12:21:57;4.10;;;2.05;;
22634;SDS011;11484;50.858;4.384;2023-04-15T12:24:25;3.97;;;2.13;;
22634;SDS011;11484;50.858;4.384;2023-04-15T12:26:52;3.80;;;2.50;;
22634;SDS011;11484;50.858;4.384;2023-04-15T12:29:19;3.45;;;2.00;;
22634;SDS011;11484;50.858;4.384;2023-04-15T12:31:53;3.38;;;2.20;;
22634;SDS011;11484;50.858;4.384;2023-04-15T12:36:52;4.93;;;1.90;;
22634;SDS011;11484;50.858;4.384;2023-04-15T12:39:25;6.13;;;2.17;;
22634;SDS011;11484;50.858;4.384;2023-04-15T12:41:54;3.38;;;1.73;;
22634;SDS011;11484;50.858;4.384;2023-04-15T12:44:21;3.47;;;1.52;;
22634;SDS011;11484;50.858;4.384;2023-04-15T12:46:47;3.50;;;1.83;;
22634;SDS011;11484;50.858;4.384;2023-04-15T12:49:14;2.55;;;1.70;;
22634;SDS011;11484;50.858;4.384;2023-04-15T12:51:43;2.88;;;1.80;;
22634;SDS011;11484;50.858;4.384;2023-04-15T12:54:09;3.85;;;1.52;;
22634;SDS011;11484;50.858;4.384;2023-04-15T12:56:35;4.15;;;1.80;;
22634;SDS011;11484;50.858;4.384;2023-04-15T12:59:01;3.38;;;1.60;;
22634;SDS011;11484;50.858;4.384;2023-04-15T13:01:27;2.42;;;1.60;;
22634;SDS011;11484;50.858;4.384;2023-04-15T13:03:52;4.20;;;1.95;;
22634;SDS011;11484;50.858;4.384;2023-04-15T13:06:18;4.38;;;2.00;;
22634;SDS011;11484;50.858;4.384;2023-04-15T13:08:44;3.42;;;1.80;;
22634;SDS011;11484;50.858;4.384;2023-04-15T13:11:09;3.63;;;2.10;;
22634;SDS011;11484;50.858;4.384;2023-04-15T13:13:35;3.58;;;1.70;;
22634;SDS011;11484;50.858;4.384;2023-04-15T13:16:01;3.47;;;1.85;;
22634;SDS011;11484;50.858;4.384;2023-04-15T13:18:27;6.15;;;2.13;;
22634;SDS011;11484;50.858;4.384;2023-04-15T13:20:53;2.75;;;1.77;;
22634;SDS011;11484;50.858;4.384;2023-04-15T13:23:19;3.83;;;2.55;;
22634;SDS011;11484;50.858;4.384;2023-04-15T13:25:44;4.63;;;2.08;;
22634;SDS011;11484;50.858;4.384;2023-04-15T13:28:10;3.35;;;2.20;;
22634;SDS011;11484;50.858;4.384;2023-04-15T13:30:37;4.10;;;2.20;;
22634;SDS011;11484;50.858;4.384;2023-04-15T13:33:03;3.22;;;2.20;;
22634;SDS011;11484;50.858;4.384;2023-04-15T13:35:30;3.85;;;2.25;;
22634;SDS011;11484;50.858;4.384;2023-04-15T13:37:56;6.18;;;2.10;;
22634;SDS011;11484;50.858;4.384;2023-04-15T13:40:22;3.72;;;1.80;;
22634;SDS011;11484;50.858;4.384;2023-04-15T13:42:47;2.78;;;1.77;;
22634;SDS011;11484;50.858;4.384;2023-04-15T13:45:13;2.70;;;1.60;;
22634;SDS011;11484;50.858;4.384;2023-04-15T13:47:39;3.10;;;1.63;;
22634;SDS011;11484;50.858;4.384;2023-04-15T13:50:05;3.13;;;1.65;;
22634;SDS011;11484;50.858;4.384;2023-04-15T13:52:31;6.07;;;1.88;;
22634;SDS011;11484;50.858;4.384;2023-04-15T13:54:57;2.45;;;1.60;;
22634;SDS011;11484;50.858;4.384;2023-04-15T13:57:23;3.25;;;1.60;;
22634;SDS011;11484;50.858;4.384;2023-04-15T13:59:49;5.28;;;1.70;;
22634;SDS011;11484;50.858;4.384;2023-04-15T14:02:15;3.45;;;1.40;;
22634;SDS011;11484;50.858;4.384;2023-04-15T14:04:40;1.55;;;1.17;;
22634;SDS011;11484;50.858;4.384;2023-04-15T14:07:06;3.05;;;1.70;;
22634;SDS011;11484;50.858;4.384;2023-04-15T14:09:32;2.75;;;1.50;;
22634;SDS011;11484;50.858;4.384;2023-04-15T14:11:58;2.80;;;1.40;;
22634;SDS011;11484;50.858;4.384;2023-04-15T14:14:25;5.97;;;3.97;;
22634;SDS011;11484;50.858;4.384;2023-04-15T14:16:51;2.80;;;1.85;;
22634;SDS011;11484;50.858;4.384;2023-04-15T14:19:17;5.25;;;1.90;;
22634;SDS011;11484;50.858;4.384;2023-04-15T14:21:42;3.42;;;2.17;;
22634;SDS011;11484;50.858;4.384;2023-04-15T14:24:08;5.95;;;1.90;;
22634;SDS011;11484;50.858;4.384;2023-04-15T14:26:35;2.78;;;1.65;;
22634;SDS011;11484;50.858;4.384;2023-04-15T14:29:00;2.20;;;1.38;;
22634;SDS011;11484;50.858;4.384;2023-04-15T14:31:26;2.92;;;1.52;;
22634;SDS011;11484;50.858;4.384;2023-04-15T14:33:52;2.83;;;1.20;;
22634;SDS011;11484;50.858;4.384;2023-04-15T14:36:17;1.63;;;1.00;;
22634;SDS011;11484;50.858;4.384;2023-04-15T14:38:43;2.50;;;1.00;;
22634;SDS011;11484;50.858;4.384;2023-04-15T14:41:08;1.80;;;0.90;;
22634;SDS011;11484;50.858;4.384;2023-04-15T14:43:34;2.17;;;1.00;;
22634;SDS011;11484;50.858;4.384;2023-04-15T14:46:00;1.70;;;0.77;;
22634;SDS011;11484;50.858;4.384;2023-04-15T14:48:26;2.50;;;0.90;;
22634;SDS011;11484;50.858;4.384;2023-04-15T14:50:52;2.90;;;1.20;;
22634;SDS011;11484;50.858;4.384;2023-04-15T14:53:18;2.78;;;1.10;;
22634;SDS011;11484;50.858;4.384;2023-04-15T14:55:44;1.92;;;1.30;;
22634;SDS011;11484;50.858;4.384;2023-04-15T14:58:10;3.15;;;1.50;;
22634;SDS011;11484;50.858;4.384;2023-04-15T15:00:37;3.83;;;1.80;;
22634;SDS011;11484;50.858;4.384;2023-04-15T15:03:06;2.28;;;1.42;;
22634;SDS011;11484;50.858;4.384;2023-04-15T15:05:39;3.75;;;1.55;;
22634;SDS011;11484;50.858;4.384;2023-04-15T15:08:06;3.03;;;1.60;;
22634;SDS011;11484;50.858;4.384;2023-04-15T15:10:33;3.47;;;1.70;;
22634;SDS011;11484;50.858;4.384;2023-04-15T15:13:00;3.75;;;1.58;;
22634;SDS011;11484;50.858;4.384;2023-04-15T15:15:30;2.45;;;1.38;;
22634;SDS011;11484;50.858;4.384;2023-04-15T15:17:56;3.83;;;1.33;;
22634;SDS011;11484;50.858;4.384;2023-04-15T15:20:22;3.28;;;1.60;;
22634;SDS011;11484;50.858;4.384;2023-04-15T15:22:48;2.17;;;1.88;;
22634;SDS011;11484;50.858;4.384;2023-04-15T15:25:14;3.45;;;2.15;;
22634;SDS011;11484;50.858;4.384;2023-04-15T15:27:40;5.70;;;2.42;;
22634;SDS011;11484;50.858;4.384;2023-04-15T15:30:06;3.72;;;2.33;;